<?xml version="1.0" encoding="UTF-8" standalone="no" ?>
<gpx xmlns="http://www.topografix.com/GPX/1/1" xmlns:xsi="http://www.w3.org/2001/XMLSchema-instance" xsi:schemaLocation="http://www.topografix.com/GPX/1/1 http://www.topografix.com/GPX/1/1/gpx.xsd" version="1.1" creator="VisuGPX - https://www.visugpx.com">
  <metadata>
    <name>Etape 2 Saint-Amand-Montrond &gt; Saint-Florent-sur-Cher</name>
    <desc><![CDATA[Etape 2 qui va de Saint-Amand-Montrond à Saint-Florent-sur-Cher
Parcours du 14 juin]]></desc>
  </metadata>
  <trk>
    <name><![CDATA[20180610195922-k1GEa]]></name>
    <trkseg>
      <trkpt lat="46.7679" lon="2.43025">
        <ele>155</ele>
        <time>2018-04-16T11:22:40Z</time>
      </trkpt>
      <trkpt lat="46.7679" lon="2.43023">
        <ele>155</ele>
        <time>2018-04-16T11:22:41Z</time>
      </trkpt>
      <trkpt lat="46.76778" lon="2.42972">
        <ele>149</ele>
        <time>2018-04-16T11:23:19Z</time>
      </trkpt>
      <trkpt lat="46.76778" lon="2.42972">
        <ele>149</ele>
        <time>2018-04-16T11:23:31Z</time>
      </trkpt>
      <trkpt lat="46.76779" lon="2.42972">
        <ele>149</ele>
        <time>2018-04-16T11:23:38Z</time>
      </trkpt>
      <trkpt lat="46.76777" lon="2.42971">
        <ele>149</ele>
        <time>2018-04-16T11:23:43Z</time>
      </trkpt>
      <trkpt lat="46.76772" lon="2.42939">
        <ele>149</ele>
        <time>2018-04-16T11:23:53Z</time>
      </trkpt>
      <trkpt lat="46.76771" lon="2.42935">
        <ele>148</ele>
        <time>2018-04-16T11:23:54Z</time>
      </trkpt>
      <trkpt lat="46.76765" lon="2.42898">
        <ele>147</ele>
        <time>2018-04-16T11:24:03Z</time>
      </trkpt>
      <trkpt lat="46.76765" lon="2.42893">
        <ele>147</ele>
        <time>2018-04-16T11:24:04Z</time>
      </trkpt>
      <trkpt lat="46.76761" lon="2.4287">
        <ele>147</ele>
        <time>2018-04-16T11:24:09Z</time>
      </trkpt>
      <trkpt lat="46.76758" lon="2.42852">
        <ele>147</ele>
        <time>2018-04-16T11:24:13Z</time>
      </trkpt>
      <trkpt lat="46.76756" lon="2.42843">
        <ele>148</ele>
        <time>2018-04-16T11:24:15Z</time>
      </trkpt>
      <trkpt lat="46.76756" lon="2.42838">
        <ele>148</ele>
        <time>2018-04-16T11:24:16Z</time>
      </trkpt>
      <trkpt lat="46.76754" lon="2.42827">
        <ele>148</ele>
        <time>2018-04-16T11:24:18Z</time>
      </trkpt>
      <trkpt lat="46.76752" lon="2.42815">
        <ele>148</ele>
        <time>2018-04-16T11:24:20Z</time>
      </trkpt>
      <trkpt lat="46.76741" lon="2.4275">
        <ele>150</ele>
        <time>2018-04-16T11:24:29Z</time>
      </trkpt>
      <trkpt lat="46.76736" lon="2.42708">
        <ele>148</ele>
        <time>2018-04-16T11:24:39Z</time>
      </trkpt>
      <trkpt lat="46.76773" lon="2.42702">
        <ele>148</ele>
        <time>2018-04-16T11:24:56Z</time>
      </trkpt>
      <trkpt lat="46.76777" lon="2.42702">
        <ele>148</ele>
        <time>2018-04-16T11:24:57Z</time>
      </trkpt>
      <trkpt lat="46.76801" lon="2.42704">
        <ele>148</ele>
        <time>2018-04-16T11:25:03Z</time>
      </trkpt>
      <trkpt lat="46.76816" lon="2.42703">
        <ele>148</ele>
        <time>2018-04-16T11:25:07Z</time>
      </trkpt>
      <trkpt lat="46.76824" lon="2.42702">
        <ele>148</ele>
        <time>2018-04-16T11:25:09Z</time>
      </trkpt>
      <trkpt lat="46.76837" lon="2.427">
        <ele>147</ele>
        <time>2018-04-16T11:25:12Z</time>
      </trkpt>
      <trkpt lat="46.76841" lon="2.42699">
        <ele>147</ele>
        <time>2018-04-16T11:25:13Z</time>
      </trkpt>
      <trkpt lat="46.76858" lon="2.42695">
        <ele>147</ele>
        <time>2018-04-16T11:25:17Z</time>
      </trkpt>
      <trkpt lat="46.76909" lon="2.42683">
        <ele>147</ele>
        <time>2018-04-16T11:25:31Z</time>
      </trkpt>
      <trkpt lat="46.76959" lon="2.42666">
        <ele>146</ele>
        <time>2018-04-16T11:25:45Z</time>
      </trkpt>
      <trkpt lat="46.77008" lon="2.42632">
        <ele>146</ele>
        <time>2018-04-16T11:25:59Z</time>
      </trkpt>
      <trkpt lat="46.77046" lon="2.42585">
        <ele>146</ele>
        <time>2018-04-16T11:26:12Z</time>
      </trkpt>
      <trkpt lat="46.77057" lon="2.42564">
        <ele>147</ele>
        <time>2018-04-16T11:26:17Z</time>
      </trkpt>
      <trkpt lat="46.77063" lon="2.42551">
        <ele>147</ele>
        <time>2018-04-16T11:26:20Z</time>
      </trkpt>
      <trkpt lat="46.77065" lon="2.42546">
        <ele>147</ele>
        <time>2018-04-16T11:26:21Z</time>
      </trkpt>
      <trkpt lat="46.77081" lon="2.42506">
        <ele>148</ele>
        <time>2018-04-16T11:26:29Z</time>
      </trkpt>
      <trkpt lat="46.77087" lon="2.4249">
        <ele>148</ele>
        <time>2018-04-16T11:26:32Z</time>
      </trkpt>
      <trkpt lat="46.77101" lon="2.42454">
        <ele>149</ele>
        <time>2018-04-16T11:26:39Z</time>
      </trkpt>
      <trkpt lat="46.77125" lon="2.42384">
        <ele>150</ele>
        <time>2018-04-16T11:26:52Z</time>
      </trkpt>
      <trkpt lat="46.7714" lon="2.42317">
        <ele>149</ele>
        <time>2018-04-16T11:27:03Z</time>
      </trkpt>
      <trkpt lat="46.77139" lon="2.42298">
        <ele>149</ele>
        <time>2018-04-16T11:27:06Z</time>
      </trkpt>
      <trkpt lat="46.77112" lon="2.42225">
        <ele>148</ele>
        <time>2018-04-16T11:27:18Z</time>
      </trkpt>
      <trkpt lat="46.77108" lon="2.42185">
        <ele>148</ele>
        <time>2018-04-16T11:27:24Z</time>
      </trkpt>
      <trkpt lat="46.77109" lon="2.42171">
        <ele>148</ele>
        <time>2018-04-16T11:27:26Z</time>
      </trkpt>
      <trkpt lat="46.77119" lon="2.42093">
        <ele>149</ele>
        <time>2018-04-16T11:27:38Z</time>
      </trkpt>
      <trkpt lat="46.77136" lon="2.42018">
        <ele>149</ele>
        <time>2018-04-16T11:27:50Z</time>
      </trkpt>
      <trkpt lat="46.77169" lon="2.41955">
        <ele>148</ele>
        <time>2018-04-16T11:28:02Z</time>
      </trkpt>
      <trkpt lat="46.77214" lon="2.41911">
        <ele>148</ele>
        <time>2018-04-16T11:28:14Z</time>
      </trkpt>
      <trkpt lat="46.7727" lon="2.41885">
        <ele>146</ele>
        <time>2018-04-16T11:28:25Z</time>
      </trkpt>
      <trkpt lat="46.77317" lon="2.41849">
        <ele>146</ele>
        <time>2018-04-16T11:28:36Z</time>
      </trkpt>
      <trkpt lat="46.77369" lon="2.41811">
        <ele>146</ele>
        <time>2018-04-16T11:28:48Z</time>
      </trkpt>
      <trkpt lat="46.77385" lon="2.41796">
        <ele>146</ele>
        <time>2018-04-16T11:28:52Z</time>
      </trkpt>
      <trkpt lat="46.77421" lon="2.41747">
        <ele>145</ele>
        <time>2018-04-16T11:29:02Z</time>
      </trkpt>
      <trkpt lat="46.77457" lon="2.41681">
        <ele>146</ele>
        <time>2018-04-16T11:29:14Z</time>
      </trkpt>
      <trkpt lat="46.77486" lon="2.41609">
        <ele>146</ele>
        <time>2018-04-16T11:29:26Z</time>
      </trkpt>
      <trkpt lat="46.77487" lon="2.41598">
        <ele>146</ele>
        <time>2018-04-16T11:29:46Z</time>
      </trkpt>
      <trkpt lat="46.77487" lon="2.41597">
        <ele>146</ele>
        <time>2018-04-16T11:29:54Z</time>
      </trkpt>
      <trkpt lat="46.7753" lon="2.41546">
        <ele>146</ele>
        <time>2018-04-16T11:30:11Z</time>
      </trkpt>
      <trkpt lat="46.7758" lon="2.41508">
        <ele>145</ele>
        <time>2018-04-16T11:30:26Z</time>
      </trkpt>
      <trkpt lat="46.77604" lon="2.4149">
        <ele>145</ele>
        <time>2018-04-16T11:30:32Z</time>
      </trkpt>
      <trkpt lat="46.77609" lon="2.41487">
        <ele>145</ele>
        <time>2018-04-16T11:30:33Z</time>
      </trkpt>
      <trkpt lat="46.77643" lon="2.41461">
        <ele>145</ele>
        <time>2018-04-16T11:30:41Z</time>
      </trkpt>
      <trkpt lat="46.7766" lon="2.41448">
        <ele>145</ele>
        <time>2018-04-16T11:30:45Z</time>
      </trkpt>
      <trkpt lat="46.77664" lon="2.41445">
        <ele>145</ele>
        <time>2018-04-16T11:30:46Z</time>
      </trkpt>
      <trkpt lat="46.77668" lon="2.41441">
        <ele>145</ele>
        <time>2018-04-16T11:30:47Z</time>
      </trkpt>
      <trkpt lat="46.77677" lon="2.41434">
        <ele>145</ele>
        <time>2018-04-16T11:30:49Z</time>
      </trkpt>
      <trkpt lat="46.77697" lon="2.41417">
        <ele>145</ele>
        <time>2018-04-16T11:30:54Z</time>
      </trkpt>
      <trkpt lat="46.77709" lon="2.41406">
        <ele>146</ele>
        <time>2018-04-16T11:30:57Z</time>
      </trkpt>
      <trkpt lat="46.77725" lon="2.4139">
        <ele>146</ele>
        <time>2018-04-16T11:31:01Z</time>
      </trkpt>
      <trkpt lat="46.77747" lon="2.41363">
        <ele>146</ele>
        <time>2018-04-16T11:31:07Z</time>
      </trkpt>
      <trkpt lat="46.77751" lon="2.41358">
        <ele>146</ele>
        <time>2018-04-16T11:31:08Z</time>
      </trkpt>
      <trkpt lat="46.77757" lon="2.41348">
        <ele>146</ele>
        <time>2018-04-16T11:31:10Z</time>
      </trkpt>
      <trkpt lat="46.77763" lon="2.41338">
        <ele>146</ele>
        <time>2018-04-16T11:31:12Z</time>
      </trkpt>
      <trkpt lat="46.77769" lon="2.41327">
        <ele>146</ele>
        <time>2018-04-16T11:31:14Z</time>
      </trkpt>
      <trkpt lat="46.778" lon="2.41254">
        <ele>145</ele>
        <time>2018-04-16T11:31:26Z</time>
      </trkpt>
      <trkpt lat="46.7783" lon="2.41181">
        <ele>146</ele>
        <time>2018-04-16T11:31:38Z</time>
      </trkpt>
      <trkpt lat="46.77856" lon="2.41111">
        <ele>147</ele>
        <time>2018-04-16T11:31:49Z</time>
      </trkpt>
      <trkpt lat="46.77881" lon="2.41041">
        <ele>147</ele>
        <time>2018-04-16T11:32:00Z</time>
      </trkpt>
      <trkpt lat="46.77883" lon="2.41027">
        <ele>147</ele>
        <time>2018-04-16T11:32:02Z</time>
      </trkpt>
      <trkpt lat="46.77878" lon="2.40988">
        <ele>148</ele>
        <time>2018-04-16T11:32:08Z</time>
      </trkpt>
      <trkpt lat="46.77847" lon="2.40922">
        <ele>150</ele>
        <time>2018-04-16T11:32:20Z</time>
      </trkpt>
      <trkpt lat="46.7783" lon="2.40873">
        <ele>152</ele>
        <time>2018-04-16T11:32:28Z</time>
      </trkpt>
      <trkpt lat="46.77829" lon="2.40854">
        <ele>152</ele>
        <time>2018-04-16T11:32:31Z</time>
      </trkpt>
      <trkpt lat="46.77842" lon="2.40798">
        <ele>151</ele>
        <time>2018-04-16T11:32:40Z</time>
      </trkpt>
      <trkpt lat="46.77869" lon="2.40728">
        <ele>150</ele>
        <time>2018-04-16T11:32:51Z</time>
      </trkpt>
      <trkpt lat="46.77886" lon="2.4065">
        <ele>150</ele>
        <time>2018-04-16T11:33:02Z</time>
      </trkpt>
      <trkpt lat="46.77896" lon="2.40615">
        <ele>150</ele>
        <time>2018-04-16T11:33:07Z</time>
      </trkpt>
      <trkpt lat="46.77938" lon="2.40555">
        <ele>149</ele>
        <time>2018-04-16T11:33:18Z</time>
      </trkpt>
      <trkpt lat="46.77945" lon="2.40544">
        <ele>149</ele>
        <time>2018-04-16T11:33:20Z</time>
      </trkpt>
      <trkpt lat="46.77961" lon="2.40525">
        <ele>149</ele>
        <time>2018-04-16T11:33:24Z</time>
      </trkpt>
      <trkpt lat="46.7801" lon="2.40478">
        <ele>148</ele>
        <time>2018-04-16T11:33:35Z</time>
      </trkpt>
      <trkpt lat="46.78046" lon="2.40466">
        <ele>148</ele>
        <time>2018-04-16T11:33:42Z</time>
      </trkpt>
      <trkpt lat="46.78081" lon="2.40455">
        <ele>147</ele>
        <time>2018-04-16T11:33:50Z</time>
      </trkpt>
      <trkpt lat="46.78114" lon="2.4044">
        <ele>146</ele>
        <time>2018-04-16T11:34:27Z</time>
      </trkpt>
      <trkpt lat="46.78119" lon="2.40438">
        <ele>146</ele>
        <time>2018-04-16T11:34:53Z</time>
      </trkpt>
      <trkpt lat="46.78119" lon="2.40438">
        <ele>146</ele>
        <time>2018-04-16T11:34:54Z</time>
      </trkpt>
      <trkpt lat="46.78119" lon="2.40438">
        <ele>146</ele>
        <time>2018-04-16T11:34:57Z</time>
      </trkpt>
      <trkpt lat="46.78119" lon="2.40438">
        <ele>146</ele>
        <time>2018-04-16T11:34:58Z</time>
      </trkpt>
      <trkpt lat="46.78119" lon="2.40438">
        <ele>146</ele>
        <time>2018-04-16T11:34:59Z</time>
      </trkpt>
      <trkpt lat="46.78119" lon="2.40438">
        <ele>146</ele>
        <time>2018-04-16T11:35:02Z</time>
      </trkpt>
      <trkpt lat="46.78119" lon="2.40438">
        <ele>146</ele>
        <time>2018-04-16T11:35:09Z</time>
      </trkpt>
      <trkpt lat="46.78119" lon="2.40438">
        <ele>146</ele>
        <time>2018-04-16T11:35:15Z</time>
      </trkpt>
      <trkpt lat="46.78119" lon="2.40438">
        <ele>146</ele>
        <time>2018-04-16T11:35:24Z</time>
      </trkpt>
      <trkpt lat="46.78119" lon="2.40438">
        <ele>146</ele>
        <time>2018-04-16T11:35:40Z</time>
      </trkpt>
      <trkpt lat="46.78119" lon="2.40438">
        <ele>146</ele>
        <time>2018-04-16T11:35:44Z</time>
      </trkpt>
      <trkpt lat="46.78119" lon="2.40437">
        <ele>146</ele>
        <time>2018-04-16T11:35:48Z</time>
      </trkpt>
      <trkpt lat="46.78119" lon="2.40435">
        <ele>146</ele>
        <time>2018-04-16T11:36:41Z</time>
      </trkpt>
      <trkpt lat="46.78122" lon="2.40425">
        <ele>146</ele>
        <time>2018-04-16T11:36:44Z</time>
      </trkpt>
      <trkpt lat="46.78138" lon="2.40387">
        <ele>146</ele>
        <time>2018-04-16T11:36:54Z</time>
      </trkpt>
      <trkpt lat="46.78153" lon="2.40349">
        <ele>146</ele>
        <time>2018-04-16T11:37:02Z</time>
      </trkpt>
      <trkpt lat="46.78166" lon="2.40312">
        <ele>146</ele>
        <time>2018-04-16T11:37:09Z</time>
      </trkpt>
      <trkpt lat="46.78175" lon="2.40291">
        <ele>146</ele>
        <time>2018-04-16T11:37:13Z</time>
      </trkpt>
      <trkpt lat="46.78179" lon="2.4028">
        <ele>146</ele>
        <time>2018-04-16T11:37:15Z</time>
      </trkpt>
      <trkpt lat="46.78192" lon="2.40247">
        <ele>146</ele>
        <time>2018-04-16T11:37:21Z</time>
      </trkpt>
      <trkpt lat="46.78203" lon="2.40219">
        <ele>146</ele>
        <time>2018-04-16T11:37:26Z</time>
      </trkpt>
      <trkpt lat="46.78212" lon="2.40196">
        <ele>147</ele>
        <time>2018-04-16T11:37:30Z</time>
      </trkpt>
      <trkpt lat="46.78216" lon="2.40184">
        <ele>147</ele>
        <time>2018-04-16T11:37:32Z</time>
      </trkpt>
      <trkpt lat="46.78226" lon="2.40161">
        <ele>147</ele>
        <time>2018-04-16T11:37:36Z</time>
      </trkpt>
      <trkpt lat="46.78237" lon="2.40133">
        <ele>147</ele>
        <time>2018-04-16T11:37:41Z</time>
      </trkpt>
      <trkpt lat="46.78241" lon="2.40122">
        <ele>147</ele>
        <time>2018-04-16T11:37:43Z</time>
      </trkpt>
      <trkpt lat="46.78251" lon="2.401">
        <ele>146</ele>
        <time>2018-04-16T11:37:47Z</time>
      </trkpt>
      <trkpt lat="46.78275" lon="2.40043">
        <ele>147</ele>
        <time>2018-04-16T11:37:57Z</time>
      </trkpt>
      <trkpt lat="46.78301" lon="2.39973">
        <ele>149</ele>
        <time>2018-04-16T11:38:09Z</time>
      </trkpt>
      <trkpt lat="46.78308" lon="2.3989">
        <ele>152</ele>
        <time>2018-04-16T11:38:22Z</time>
      </trkpt>
      <trkpt lat="46.78312" lon="2.39809">
        <ele>157</ele>
        <time>2018-04-16T11:38:35Z</time>
      </trkpt>
      <trkpt lat="46.78315" lon="2.39747">
        <ele>160</ele>
        <time>2018-04-16T11:38:48Z</time>
      </trkpt>
      <trkpt lat="46.78318" lon="2.39715">
        <ele>161</ele>
        <time>2018-04-16T11:38:54Z</time>
      </trkpt>
      <trkpt lat="46.78323" lon="2.39651">
        <ele>163</ele>
        <time>2018-04-16T11:39:07Z</time>
      </trkpt>
      <trkpt lat="46.78332" lon="2.3958">
        <ele>165</ele>
        <time>2018-04-16T11:39:24Z</time>
      </trkpt>
      <trkpt lat="46.7834" lon="2.39513">
        <ele>166</ele>
        <time>2018-04-16T11:39:45Z</time>
      </trkpt>
      <trkpt lat="46.78342" lon="2.39478">
        <ele>167</ele>
        <time>2018-04-16T11:39:58Z</time>
      </trkpt>
      <trkpt lat="46.78344" lon="2.39444">
        <ele>167</ele>
        <time>2018-04-16T11:40:10Z</time>
      </trkpt>
      <trkpt lat="46.78343" lon="2.39426">
        <ele>166</ele>
        <time>2018-04-16T11:40:15Z</time>
      </trkpt>
      <trkpt lat="46.7834" lon="2.39387">
        <ele>166</ele>
        <time>2018-04-16T11:40:25Z</time>
      </trkpt>
      <trkpt lat="46.78338" lon="2.39371">
        <ele>165</ele>
        <time>2018-04-16T11:40:29Z</time>
      </trkpt>
      <trkpt lat="46.78335" lon="2.39309">
        <ele>165</ele>
        <time>2018-04-16T11:40:44Z</time>
      </trkpt>
      <trkpt lat="46.78335" lon="2.39296">
        <ele>165</ele>
        <time>2018-04-16T11:40:47Z</time>
      </trkpt>
      <trkpt lat="46.78334" lon="2.39282">
        <ele>166</ele>
        <time>2018-04-16T11:40:50Z</time>
      </trkpt>
      <trkpt lat="46.78332" lon="2.39247">
        <ele>165</ele>
        <time>2018-04-16T11:40:57Z</time>
      </trkpt>
      <trkpt lat="46.78332" lon="2.39223">
        <ele>163</ele>
        <time>2018-04-16T11:41:01Z</time>
      </trkpt>
      <trkpt lat="46.78334" lon="2.39196">
        <ele>168</ele>
        <time>2018-04-16T11:41:05Z</time>
      </trkpt>
      <trkpt lat="46.78335" lon="2.39165">
        <ele>166</ele>
        <time>2018-04-16T11:41:09Z</time>
      </trkpt>
      <trkpt lat="46.78347" lon="2.39086">
        <ele>166</ele>
        <time>2018-04-16T11:41:21Z</time>
      </trkpt>
      <trkpt lat="46.78385" lon="2.39024">
        <ele>163</ele>
        <time>2018-04-16T11:41:34Z</time>
      </trkpt>
      <trkpt lat="46.78414" lon="2.38979">
        <ele>158</ele>
        <time>2018-04-16T11:41:41Z</time>
      </trkpt>
      <trkpt lat="46.78452" lon="2.38921">
        <ele>156</ele>
        <time>2018-04-16T11:41:49Z</time>
      </trkpt>
      <trkpt lat="46.78491" lon="2.38863">
        <ele>153</ele>
        <time>2018-04-16T11:41:57Z</time>
      </trkpt>
      <trkpt lat="46.78502" lon="2.38854">
        <ele>152</ele>
        <time>2018-04-16T11:41:59Z</time>
      </trkpt>
      <trkpt lat="46.78561" lon="2.3884">
        <ele>151</ele>
        <time>2018-04-16T11:42:09Z</time>
      </trkpt>
      <trkpt lat="46.78617" lon="2.3886">
        <ele>150</ele>
        <time>2018-04-16T11:42:17Z</time>
      </trkpt>
      <trkpt lat="46.78669" lon="2.38902">
        <ele>149</ele>
        <time>2018-04-16T11:42:26Z</time>
      </trkpt>
      <trkpt lat="46.78716" lon="2.38946">
        <ele>149</ele>
        <time>2018-04-16T11:42:37Z</time>
      </trkpt>
      <trkpt lat="46.78763" lon="2.38991">
        <ele>149</ele>
        <time>2018-04-16T11:42:49Z</time>
      </trkpt>
      <trkpt lat="46.78775" lon="2.39004">
        <ele>149</ele>
        <time>2018-04-16T11:42:52Z</time>
      </trkpt>
      <trkpt lat="46.78812" lon="2.39062">
        <ele>149</ele>
        <time>2018-04-16T11:43:03Z</time>
      </trkpt>
      <trkpt lat="46.78846" lon="2.39121">
        <ele>149</ele>
        <time>2018-04-16T11:43:15Z</time>
      </trkpt>
      <trkpt lat="46.78871" lon="2.39156">
        <ele>149</ele>
        <time>2018-04-16T11:43:23Z</time>
      </trkpt>
      <trkpt lat="46.78912" lon="2.39209">
        <ele>150</ele>
        <time>2018-04-16T11:43:36Z</time>
      </trkpt>
      <trkpt lat="46.78926" lon="2.39234">
        <ele>148</ele>
        <time>2018-04-16T11:43:41Z</time>
      </trkpt>
      <trkpt lat="46.78946" lon="2.39272">
        <ele>147</ele>
        <time>2018-04-16T11:43:52Z</time>
      </trkpt>
      <trkpt lat="46.78967" lon="2.39237">
        <ele>146</ele>
        <time>2018-04-16T11:44:01Z</time>
      </trkpt>
      <trkpt lat="46.78976" lon="2.39205">
        <ele>146</ele>
        <time>2018-04-16T11:44:06Z</time>
      </trkpt>
      <trkpt lat="46.78992" lon="2.39142">
        <ele>146</ele>
        <time>2018-04-16T11:44:16Z</time>
      </trkpt>
      <trkpt lat="46.79014" lon="2.39064">
        <ele>145</ele>
        <time>2018-04-16T11:44:30Z</time>
      </trkpt>
      <trkpt lat="46.79033" lon="2.3899">
        <ele>146</ele>
        <time>2018-04-16T11:44:43Z</time>
      </trkpt>
      <trkpt lat="46.79055" lon="2.38915">
        <ele>147</ele>
        <time>2018-04-16T11:44:56Z</time>
      </trkpt>
      <trkpt lat="46.79065" lon="2.38879">
        <ele>147</ele>
        <time>2018-04-16T11:45:02Z</time>
      </trkpt>
      <trkpt lat="46.79086" lon="2.38799">
        <ele>147</ele>
        <time>2018-04-16T11:45:15Z</time>
      </trkpt>
      <trkpt lat="46.79107" lon="2.3872">
        <ele>148</ele>
        <time>2018-04-16T11:45:28Z</time>
      </trkpt>
      <trkpt lat="46.79129" lon="2.38643">
        <ele>150</ele>
        <time>2018-04-16T11:45:41Z</time>
      </trkpt>
      <trkpt lat="46.7915" lon="2.38567">
        <ele>151</ele>
        <time>2018-04-16T11:45:54Z</time>
      </trkpt>
      <trkpt lat="46.79161" lon="2.38536">
        <ele>152</ele>
        <time>2018-04-16T11:46:00Z</time>
      </trkpt>
      <trkpt lat="46.79181" lon="2.38508">
        <ele>149</ele>
        <time>2018-04-16T11:46:07Z</time>
      </trkpt>
      <trkpt lat="46.79227" lon="2.38467">
        <ele>149</ele>
        <time>2018-04-16T11:46:22Z</time>
      </trkpt>
      <trkpt lat="46.79236" lon="2.38461">
        <ele>149</ele>
        <time>2018-04-16T11:46:24Z</time>
      </trkpt>
      <trkpt lat="46.7929" lon="2.38437">
        <ele>146</ele>
        <time>2018-04-16T11:46:33Z</time>
      </trkpt>
      <trkpt lat="46.79314" lon="2.38421">
        <ele>146</ele>
        <time>2018-04-16T11:46:37Z</time>
      </trkpt>
      <trkpt lat="46.79323" lon="2.3841">
        <ele>147</ele>
        <time>2018-04-16T11:46:39Z</time>
      </trkpt>
      <trkpt lat="46.7933" lon="2.38396">
        <ele>148</ele>
        <time>2018-04-16T11:46:41Z</time>
      </trkpt>
      <trkpt lat="46.7935" lon="2.38321">
        <ele>149</ele>
        <time>2018-04-16T11:46:56Z</time>
      </trkpt>
      <trkpt lat="46.7936" lon="2.383">
        <ele>149</ele>
        <time>2018-04-16T11:47:03Z</time>
      </trkpt>
      <trkpt lat="46.79397" lon="2.38239">
        <ele>150</ele>
        <time>2018-04-16T11:47:25Z</time>
      </trkpt>
      <trkpt lat="46.79432" lon="2.3818">
        <ele>151</ele>
        <time>2018-04-16T11:47:47Z</time>
      </trkpt>
      <trkpt lat="46.79475" lon="2.38131">
        <ele>155</ele>
        <time>2018-04-16T11:48:08Z</time>
      </trkpt>
      <trkpt lat="46.79519" lon="2.38087">
        <ele>155</ele>
        <time>2018-04-16T11:48:27Z</time>
      </trkpt>
      <trkpt lat="46.79535" lon="2.38073">
        <ele>156</ele>
        <time>2018-04-16T11:48:33Z</time>
      </trkpt>
      <trkpt lat="46.79584" lon="2.38034">
        <ele>150</ele>
        <time>2018-04-16T11:48:47Z</time>
      </trkpt>
      <trkpt lat="46.79637" lon="2.38002">
        <ele>148</ele>
        <time>2018-04-16T11:48:55Z</time>
      </trkpt>
      <trkpt lat="46.79675" lon="2.37972">
        <ele>146</ele>
        <time>2018-04-16T11:49:01Z</time>
      </trkpt>
      <trkpt lat="46.79722" lon="2.37932">
        <ele>147</ele>
        <time>2018-04-16T11:49:10Z</time>
      </trkpt>
      <trkpt lat="46.79768" lon="2.37889">
        <ele>149</ele>
        <time>2018-04-16T11:49:23Z</time>
      </trkpt>
      <trkpt lat="46.79793" lon="2.37869">
        <ele>149</ele>
        <time>2018-04-16T11:49:34Z</time>
      </trkpt>
      <trkpt lat="46.79803" lon="2.37887">
        <ele>149</ele>
        <time>2018-04-16T11:49:41Z</time>
      </trkpt>
      <trkpt lat="46.79843" lon="2.3795">
        <ele>145</ele>
        <time>2018-04-16T11:49:52Z</time>
      </trkpt>
      <trkpt lat="46.7988" lon="2.3801">
        <ele>143</ele>
        <time>2018-04-16T11:50:01Z</time>
      </trkpt>
      <trkpt lat="46.79916" lon="2.38077">
        <ele>142</ele>
        <time>2018-04-16T11:50:13Z</time>
      </trkpt>
      <trkpt lat="46.79956" lon="2.38141">
        <ele>142</ele>
        <time>2018-04-16T11:50:23Z</time>
      </trkpt>
      <trkpt lat="46.7999" lon="2.38195">
        <ele>141</ele>
        <time>2018-04-16T11:50:36Z</time>
      </trkpt>
      <trkpt lat="46.80019" lon="2.38242">
        <ele>140</ele>
        <time>2018-04-16T11:50:47Z</time>
      </trkpt>
      <trkpt lat="46.80059" lon="2.38303">
        <ele>141</ele>
        <time>2018-04-16T11:51:00Z</time>
      </trkpt>
      <trkpt lat="46.80096" lon="2.38363">
        <ele>141</ele>
        <time>2018-04-16T11:51:12Z</time>
      </trkpt>
      <trkpt lat="46.80121" lon="2.38403">
        <ele>142</ele>
        <time>2018-04-16T11:51:21Z</time>
      </trkpt>
      <trkpt lat="46.80124" lon="2.38407">
        <ele>142</ele>
        <time>2018-04-16T11:51:22Z</time>
      </trkpt>
      <trkpt lat="46.80126" lon="2.3841">
        <ele>142</ele>
        <time>2018-04-16T11:51:23Z</time>
      </trkpt>
      <trkpt lat="46.8014" lon="2.38425">
        <ele>142</ele>
        <time>2018-04-16T11:51:31Z</time>
      </trkpt>
      <trkpt lat="46.8018" lon="2.38369">
        <ele>143</ele>
        <time>2018-04-16T11:51:45Z</time>
      </trkpt>
      <trkpt lat="46.80192" lon="2.38353">
        <ele>143</ele>
        <time>2018-04-16T11:51:49Z</time>
      </trkpt>
      <trkpt lat="46.80201" lon="2.38339">
        <ele>143</ele>
        <time>2018-04-16T11:51:52Z</time>
      </trkpt>
      <trkpt lat="46.80231" lon="2.38274">
        <ele>144</ele>
        <time>2018-04-16T11:52:05Z</time>
      </trkpt>
      <trkpt lat="46.80254" lon="2.38201">
        <ele>144</ele>
        <time>2018-04-16T11:52:17Z</time>
      </trkpt>
      <trkpt lat="46.8028" lon="2.3813">
        <ele>144</ele>
        <time>2018-04-16T11:52:29Z</time>
      </trkpt>
      <trkpt lat="46.80286" lon="2.38114">
        <ele>144</ele>
        <time>2018-04-16T11:52:32Z</time>
      </trkpt>
      <trkpt lat="46.80321" lon="2.38048">
        <ele>144</ele>
        <time>2018-04-16T11:52:45Z</time>
      </trkpt>
      <trkpt lat="46.80327" lon="2.38038">
        <ele>144</ele>
        <time>2018-04-16T11:52:47Z</time>
      </trkpt>
      <trkpt lat="46.8035" lon="2.3799">
        <ele>142</ele>
        <time>2018-04-16T11:52:57Z</time>
      </trkpt>
      <trkpt lat="46.80339" lon="2.37932">
        <ele>142</ele>
        <time>2018-04-16T11:53:07Z</time>
      </trkpt>
      <trkpt lat="46.80308" lon="2.37867">
        <ele>145</ele>
        <time>2018-04-16T11:53:18Z</time>
      </trkpt>
      <trkpt lat="46.8028" lon="2.37794">
        <ele>146</ele>
        <time>2018-04-16T11:53:32Z</time>
      </trkpt>
      <trkpt lat="46.80288" lon="2.3772">
        <ele>145</ele>
        <time>2018-04-16T11:53:46Z</time>
      </trkpt>
      <trkpt lat="46.80293" lon="2.3764">
        <ele>144</ele>
        <time>2018-04-16T11:53:59Z</time>
      </trkpt>
      <trkpt lat="46.80297" lon="2.37597">
        <ele>144</ele>
        <time>2018-04-16T11:54:06Z</time>
      </trkpt>
      <trkpt lat="46.80298" lon="2.37591">
        <ele>144</ele>
        <time>2018-04-16T11:54:07Z</time>
      </trkpt>
      <trkpt lat="46.80299" lon="2.3756">
        <ele>144</ele>
        <time>2018-04-16T11:54:12Z</time>
      </trkpt>
      <trkpt lat="46.80299" lon="2.37547">
        <ele>144</ele>
        <time>2018-04-16T11:54:14Z</time>
      </trkpt>
      <trkpt lat="46.80306" lon="2.37467">
        <ele>142</ele>
        <time>2018-04-16T11:54:26Z</time>
      </trkpt>
      <trkpt lat="46.80311" lon="2.37441">
        <ele>142</ele>
        <time>2018-04-16T11:54:30Z</time>
      </trkpt>
      <trkpt lat="46.80323" lon="2.37362">
        <ele>141</ele>
        <time>2018-04-16T11:54:42Z</time>
      </trkpt>
      <trkpt lat="46.80327" lon="2.37346">
        <ele>141</ele>
        <time>2018-04-16T11:54:45Z</time>
      </trkpt>
      <trkpt lat="46.80346" lon="2.37265">
        <ele>142</ele>
        <time>2018-04-16T11:54:59Z</time>
      </trkpt>
      <trkpt lat="46.80353" lon="2.37188">
        <ele>142</ele>
        <time>2018-04-16T11:55:12Z</time>
      </trkpt>
      <trkpt lat="46.80353" lon="2.37152">
        <ele>143</ele>
        <time>2018-04-16T11:55:23Z</time>
      </trkpt>
      <trkpt lat="46.80358" lon="2.37145">
        <ele>143</ele>
        <time>2018-04-16T11:55:48Z</time>
      </trkpt>
      <trkpt lat="46.80363" lon="2.37146">
        <ele>143</ele>
        <time>2018-04-16T11:55:51Z</time>
      </trkpt>
      <trkpt lat="46.8041" lon="2.37111">
        <ele>143</ele>
        <time>2018-04-16T11:56:13Z</time>
      </trkpt>
      <trkpt lat="46.80434" lon="2.37118">
        <ele>142</ele>
        <time>2018-04-16T11:56:24Z</time>
      </trkpt>
      <trkpt lat="46.8044" lon="2.37121">
        <ele>142</ele>
        <time>2018-04-16T11:57:02Z</time>
      </trkpt>
      <trkpt lat="46.80465" lon="2.37133">
        <ele>142</ele>
        <time>2018-04-16T11:57:13Z</time>
      </trkpt>
      <trkpt lat="46.80476" lon="2.37138">
        <ele>142</ele>
        <time>2018-04-16T11:57:17Z</time>
      </trkpt>
      <trkpt lat="46.80519" lon="2.37155">
        <ele>141</ele>
        <time>2018-04-16T11:57:36Z</time>
      </trkpt>
      <trkpt lat="46.80522" lon="2.37154">
        <ele>141</ele>
        <time>2018-04-16T11:57:41Z</time>
      </trkpt>
      <trkpt lat="46.80523" lon="2.37154">
        <ele>141</ele>
        <time>2018-04-16T11:57:44Z</time>
      </trkpt>
      <trkpt lat="46.80524" lon="2.37153">
        <ele>141</ele>
        <time>2018-04-16T11:57:47Z</time>
      </trkpt>
      <trkpt lat="46.80524" lon="2.37153">
        <ele>141</ele>
        <time>2018-04-16T11:57:49Z</time>
      </trkpt>
      <trkpt lat="46.80524" lon="2.37153">
        <ele>141</ele>
        <time>2018-04-16T11:57:50Z</time>
      </trkpt>
      <trkpt lat="46.80524" lon="2.37153">
        <ele>141</ele>
        <time>2018-04-16T11:57:51Z</time>
      </trkpt>
      <trkpt lat="46.80524" lon="2.37153">
        <ele>141</ele>
        <time>2018-04-16T11:57:53Z</time>
      </trkpt>
      <trkpt lat="46.80524" lon="2.37153">
        <ele>141</ele>
        <time>2018-04-16T11:57:54Z</time>
      </trkpt>
      <trkpt lat="46.80524" lon="2.37153">
        <ele>141</ele>
        <time>2018-04-16T11:57:57Z</time>
      </trkpt>
      <trkpt lat="46.80524" lon="2.37153">
        <ele>141</ele>
        <time>2018-04-16T11:57:58Z</time>
      </trkpt>
      <trkpt lat="46.80524" lon="2.37153">
        <ele>141</ele>
        <time>2018-04-16T11:58:12Z</time>
      </trkpt>
      <trkpt lat="46.80524" lon="2.37153">
        <ele>141</ele>
        <time>2018-04-16T11:58:34Z</time>
      </trkpt>
      <trkpt lat="46.80524" lon="2.37153">
        <ele>141</ele>
        <time>2018-04-16T11:58:47Z</time>
      </trkpt>
      <trkpt lat="46.80525" lon="2.37153">
        <ele>141</ele>
        <time>2018-04-16T11:58:53Z</time>
      </trkpt>
      <trkpt lat="46.80525" lon="2.37152">
        <ele>141</ele>
        <time>2018-04-16T11:58:59Z</time>
      </trkpt>
      <trkpt lat="46.80525" lon="2.37152">
        <ele>141</ele>
        <time>2018-04-16T11:59:09Z</time>
      </trkpt>
      <trkpt lat="46.80526" lon="2.37152">
        <ele>141</ele>
        <time>2018-04-16T11:59:22Z</time>
      </trkpt>
      <trkpt lat="46.80526" lon="2.37152">
        <ele>141</ele>
        <time>2018-04-16T11:59:29Z</time>
      </trkpt>
      <trkpt lat="46.80525" lon="2.37153">
        <ele>141</ele>
        <time>2018-04-16T11:59:56Z</time>
      </trkpt>
      <trkpt lat="46.80525" lon="2.37153">
        <ele>141</ele>
        <time>2018-04-16T12:00:05Z</time>
      </trkpt>
      <trkpt lat="46.80525" lon="2.37153">
        <ele>141</ele>
        <time>2018-04-16T12:00:06Z</time>
      </trkpt>
      <trkpt lat="46.80525" lon="2.37153">
        <ele>141</ele>
        <time>2018-04-16T12:00:07Z</time>
      </trkpt>
      <trkpt lat="46.80525" lon="2.37153">
        <ele>141</ele>
        <time>2018-04-16T12:00:08Z</time>
      </trkpt>
      <trkpt lat="46.80525" lon="2.37153">
        <ele>141</ele>
        <time>2018-04-16T12:00:09Z</time>
      </trkpt>
      <trkpt lat="46.80532" lon="2.3715">
        <ele>141</ele>
        <time>2018-04-16T12:00:17Z</time>
      </trkpt>
      <trkpt lat="46.80536" lon="2.37141">
        <ele>141</ele>
        <time>2018-04-16T12:00:19Z</time>
      </trkpt>
      <trkpt lat="46.80554" lon="2.37061">
        <ele>141</ele>
        <time>2018-04-16T12:00:30Z</time>
      </trkpt>
      <trkpt lat="46.80561" lon="2.37012">
        <ele>141</ele>
        <time>2018-04-16T12:00:46Z</time>
      </trkpt>
      <trkpt lat="46.80563" lon="2.37005">
        <ele>140</ele>
        <time>2018-04-16T12:00:49Z</time>
      </trkpt>
      <trkpt lat="46.80569" lon="2.36973">
        <ele>141</ele>
        <time>2018-04-16T12:00:57Z</time>
      </trkpt>
      <trkpt lat="46.8057" lon="2.36968">
        <ele>141</ele>
        <time>2018-04-16T12:00:58Z</time>
      </trkpt>
      <trkpt lat="46.80598" lon="2.36898">
        <ele>141</ele>
        <time>2018-04-16T12:01:12Z</time>
      </trkpt>
      <trkpt lat="46.806" lon="2.36894">
        <ele>141</ele>
        <time>2018-04-16T12:01:13Z</time>
      </trkpt>
      <trkpt lat="46.80611" lon="2.3687">
        <ele>141</ele>
        <time>2018-04-16T12:01:19Z</time>
      </trkpt>
      <trkpt lat="46.80615" lon="2.3686">
        <ele>141</ele>
        <time>2018-04-16T12:01:21Z</time>
      </trkpt>
      <trkpt lat="46.80634" lon="2.36827">
        <ele>142</ele>
        <time>2018-04-16T12:01:29Z</time>
      </trkpt>
      <trkpt lat="46.80665" lon="2.36784">
        <ele>142</ele>
        <time>2018-04-16T12:01:41Z</time>
      </trkpt>
      <trkpt lat="46.80707" lon="2.36734">
        <ele>141</ele>
        <time>2018-04-16T12:01:56Z</time>
      </trkpt>
      <trkpt lat="46.80752" lon="2.36684">
        <ele>141</ele>
        <time>2018-04-16T12:02:10Z</time>
      </trkpt>
      <trkpt lat="46.80774" lon="2.36666">
        <ele>142</ele>
        <time>2018-04-16T12:02:16Z</time>
      </trkpt>
      <trkpt lat="46.80828" lon="2.36637">
        <ele>142</ele>
        <time>2018-04-16T12:02:29Z</time>
      </trkpt>
      <trkpt lat="46.80883" lon="2.36642">
        <ele>141</ele>
        <time>2018-04-16T12:02:42Z</time>
      </trkpt>
      <trkpt lat="46.80937" lon="2.36658">
        <ele>141</ele>
        <time>2018-04-16T12:02:54Z</time>
      </trkpt>
      <trkpt lat="46.80992" lon="2.36675">
        <ele>141</ele>
        <time>2018-04-16T12:03:06Z</time>
      </trkpt>
      <trkpt lat="46.81049" lon="2.36683">
        <ele>141</ele>
        <time>2018-04-16T12:03:19Z</time>
      </trkpt>
      <trkpt lat="46.81074" lon="2.36678">
        <ele>141</ele>
        <time>2018-04-16T12:03:25Z</time>
      </trkpt>
      <trkpt lat="46.81079" lon="2.36676">
        <ele>141</ele>
        <time>2018-04-16T12:03:26Z</time>
      </trkpt>
      <trkpt lat="46.81113" lon="2.36664">
        <ele>141</ele>
        <time>2018-04-16T12:03:34Z</time>
      </trkpt>
      <trkpt lat="46.81167" lon="2.36634">
        <ele>141</ele>
        <time>2018-04-16T12:03:48Z</time>
      </trkpt>
      <trkpt lat="46.81175" lon="2.36627">
        <ele>141</ele>
        <time>2018-04-16T12:03:50Z</time>
      </trkpt>
      <trkpt lat="46.81226" lon="2.3659">
        <ele>140</ele>
        <time>2018-04-16T12:04:04Z</time>
      </trkpt>
      <trkpt lat="46.81231" lon="2.36589">
        <ele>140</ele>
        <time>2018-04-16T12:04:05Z</time>
      </trkpt>
      <trkpt lat="46.81284" lon="2.36601">
        <ele>140</ele>
        <time>2018-04-16T12:04:16Z</time>
      </trkpt>
      <trkpt lat="46.81338" lon="2.36616">
        <ele>139</ele>
        <time>2018-04-16T12:04:27Z</time>
      </trkpt>
      <trkpt lat="46.81392" lon="2.36611">
        <ele>140</ele>
        <time>2018-04-16T12:04:38Z</time>
      </trkpt>
      <trkpt lat="46.81447" lon="2.36585">
        <ele>140</ele>
        <time>2018-04-16T12:04:51Z</time>
      </trkpt>
      <trkpt lat="46.81496" lon="2.36546">
        <ele>139</ele>
        <time>2018-04-16T12:05:03Z</time>
      </trkpt>
      <trkpt lat="46.81544" lon="2.36502">
        <ele>139</ele>
        <time>2018-04-16T12:05:14Z</time>
      </trkpt>
      <trkpt lat="46.81594" lon="2.36466">
        <ele>139</ele>
        <time>2018-04-16T12:05:25Z</time>
      </trkpt>
      <trkpt lat="46.8164" lon="2.36414">
        <ele>138</ele>
        <time>2018-04-16T12:05:36Z</time>
      </trkpt>
      <trkpt lat="46.81675" lon="2.36349">
        <ele>138</ele>
        <time>2018-04-16T12:05:47Z</time>
      </trkpt>
      <trkpt lat="46.81692" lon="2.36274">
        <ele>138</ele>
        <time>2018-04-16T12:05:58Z</time>
      </trkpt>
      <trkpt lat="46.81706" lon="2.36195">
        <ele>138</ele>
        <time>2018-04-16T12:06:09Z</time>
      </trkpt>
      <trkpt lat="46.81736" lon="2.36126">
        <ele>139</ele>
        <time>2018-04-16T12:06:20Z</time>
      </trkpt>
      <trkpt lat="46.81763" lon="2.36088">
        <ele>140</ele>
        <time>2018-04-16T12:06:28Z</time>
      </trkpt>
      <trkpt lat="46.81802" lon="2.36031">
        <ele>140</ele>
        <time>2018-04-16T12:06:40Z</time>
      </trkpt>
      <trkpt lat="46.8184" lon="2.35974">
        <ele>139</ele>
        <time>2018-04-16T12:06:52Z</time>
      </trkpt>
      <trkpt lat="46.81879" lon="2.35914">
        <ele>138</ele>
        <time>2018-04-16T12:07:04Z</time>
      </trkpt>
      <trkpt lat="46.81921" lon="2.35855">
        <ele>139</ele>
        <time>2018-04-16T12:07:16Z</time>
      </trkpt>
      <trkpt lat="46.81956" lon="2.35796">
        <ele>140</ele>
        <time>2018-04-16T12:07:28Z</time>
      </trkpt>
      <trkpt lat="46.81978" lon="2.35719">
        <ele>139</ele>
        <time>2018-04-16T12:07:40Z</time>
      </trkpt>
      <trkpt lat="46.81991" lon="2.35642">
        <ele>140</ele>
        <time>2018-04-16T12:07:51Z</time>
      </trkpt>
      <trkpt lat="46.81992" lon="2.35603">
        <ele>140</ele>
        <time>2018-04-16T12:07:56Z</time>
      </trkpt>
      <trkpt lat="46.81995" lon="2.35589">
        <ele>141</ele>
        <time>2018-04-16T12:07:58Z</time>
      </trkpt>
      <trkpt lat="46.82024" lon="2.35534">
        <ele>140</ele>
        <time>2018-04-16T12:08:08Z</time>
      </trkpt>
      <trkpt lat="46.82027" lon="2.35529">
        <ele>140</ele>
        <time>2018-04-16T12:08:09Z</time>
      </trkpt>
      <trkpt lat="46.82031" lon="2.35523">
        <ele>140</ele>
        <time>2018-04-16T12:08:10Z</time>
      </trkpt>
      <trkpt lat="46.82034" lon="2.35518">
        <ele>140</ele>
        <time>2018-04-16T12:08:11Z</time>
      </trkpt>
      <trkpt lat="46.82037" lon="2.35513">
        <ele>140</ele>
        <time>2018-04-16T12:08:12Z</time>
      </trkpt>
      <trkpt lat="46.8204" lon="2.35508">
        <ele>140</ele>
        <time>2018-04-16T12:08:13Z</time>
      </trkpt>
      <trkpt lat="46.82044" lon="2.35503">
        <ele>140</ele>
        <time>2018-04-16T12:08:14Z</time>
      </trkpt>
      <trkpt lat="46.8206" lon="2.35477">
        <ele>140</ele>
        <time>2018-04-16T12:08:19Z</time>
      </trkpt>
      <trkpt lat="46.82098" lon="2.35416">
        <ele>140</ele>
        <time>2018-04-16T12:08:31Z</time>
      </trkpt>
      <trkpt lat="46.82127" lon="2.35371">
        <ele>140</ele>
        <time>2018-04-16T12:08:40Z</time>
      </trkpt>
      <trkpt lat="46.8215" lon="2.35344">
        <ele>140</ele>
        <time>2018-04-16T12:08:47Z</time>
      </trkpt>
      <trkpt lat="46.82189" lon="2.3536">
        <ele>141</ele>
        <time>2018-04-16T12:08:59Z</time>
      </trkpt>
      <trkpt lat="46.82238" lon="2.35384">
        <ele>141</ele>
        <time>2018-04-16T12:09:14Z</time>
      </trkpt>
      <trkpt lat="46.82295" lon="2.35386">
        <ele>143</ele>
        <time>2018-04-16T12:09:30Z</time>
      </trkpt>
      <trkpt lat="46.82313" lon="2.35375">
        <ele>143</ele>
        <time>2018-04-16T12:09:38Z</time>
      </trkpt>
      <trkpt lat="46.82315" lon="2.35377">
        <ele>143</ele>
        <time>2018-04-16T12:09:41Z</time>
      </trkpt>
      <trkpt lat="46.82317" lon="2.35379">
        <ele>143</ele>
        <time>2018-04-16T12:09:43Z</time>
      </trkpt>
      <trkpt lat="46.82329" lon="2.35343">
        <ele>144</ele>
        <time>2018-04-16T12:09:58Z</time>
      </trkpt>
      <trkpt lat="46.82331" lon="2.3534">
        <ele>144</ele>
        <time>2018-04-16T12:10:27Z</time>
      </trkpt>
      <trkpt lat="46.82335" lon="2.35344">
        <ele>144</ele>
        <time>2018-04-16T12:10:46Z</time>
      </trkpt>
      <trkpt lat="46.82337" lon="2.35346">
        <ele>145</ele>
        <time>2018-04-16T12:11:16Z</time>
      </trkpt>
      <trkpt lat="46.82359" lon="2.35354">
        <ele>145</ele>
        <time>2018-04-16T12:11:28Z</time>
      </trkpt>
      <trkpt lat="46.82366" lon="2.35357">
        <ele>145</ele>
        <time>2018-04-16T12:11:31Z</time>
      </trkpt>
      <trkpt lat="46.82369" lon="2.3536">
        <ele>145</ele>
        <time>2018-04-16T12:11:32Z</time>
      </trkpt>
      <trkpt lat="46.82373" lon="2.35364">
        <ele>145</ele>
        <time>2018-04-16T12:11:34Z</time>
      </trkpt>
      <trkpt lat="46.82378" lon="2.35374">
        <ele>145</ele>
        <time>2018-04-16T12:11:37Z</time>
      </trkpt>
      <trkpt lat="46.8238" lon="2.35378">
        <ele>145</ele>
        <time>2018-04-16T12:11:38Z</time>
      </trkpt>
      <trkpt lat="46.82402" lon="2.3545">
        <ele>145</ele>
        <time>2018-04-16T12:11:56Z</time>
      </trkpt>
      <trkpt lat="46.82414" lon="2.35481">
        <ele>145</ele>
        <time>2018-04-16T12:12:03Z</time>
      </trkpt>
      <trkpt lat="46.82452" lon="2.35539">
        <ele>148</ele>
        <time>2018-04-16T12:12:18Z</time>
      </trkpt>
      <trkpt lat="46.82491" lon="2.35573">
        <ele>148</ele>
        <time>2018-04-16T12:12:31Z</time>
      </trkpt>
      <trkpt lat="46.82537" lon="2.35568">
        <ele>154</ele>
        <time>2018-04-16T12:12:52Z</time>
      </trkpt>
      <trkpt lat="46.82548" lon="2.35574">
        <ele>154</ele>
        <time>2018-04-16T12:12:57Z</time>
      </trkpt>
      <trkpt lat="46.82565" lon="2.35591">
        <ele>153</ele>
        <time>2018-04-16T12:13:08Z</time>
      </trkpt>
      <trkpt lat="46.82567" lon="2.35592">
        <ele>153</ele>
        <time>2018-04-16T12:13:09Z</time>
      </trkpt>
      <trkpt lat="46.82568" lon="2.35594">
        <ele>153</ele>
        <time>2018-04-16T12:13:10Z</time>
      </trkpt>
      <trkpt lat="46.8257" lon="2.35597">
        <ele>153</ele>
        <time>2018-04-16T12:13:11Z</time>
      </trkpt>
      <trkpt lat="46.82615" lon="2.35637">
        <ele>156</ele>
        <time>2018-04-16T12:13:36Z</time>
      </trkpt>
      <trkpt lat="46.82626" lon="2.35634">
        <ele>156</ele>
        <time>2018-04-16T12:13:42Z</time>
      </trkpt>
      <trkpt lat="46.82642" lon="2.35617">
        <ele>157</ele>
        <time>2018-04-16T12:13:51Z</time>
      </trkpt>
      <trkpt lat="46.82648" lon="2.35609">
        <ele>158</ele>
        <time>2018-04-16T12:13:55Z</time>
      </trkpt>
      <trkpt lat="46.82663" lon="2.3559">
        <ele>159</ele>
        <time>2018-04-16T12:14:04Z</time>
      </trkpt>
      <trkpt lat="46.82669" lon="2.35585">
        <ele>160</ele>
        <time>2018-04-16T12:14:07Z</time>
      </trkpt>
      <trkpt lat="46.82716" lon="2.35556">
        <ele>163</ele>
        <time>2018-04-16T12:14:33Z</time>
      </trkpt>
      <trkpt lat="46.82768" lon="2.35576">
        <ele>165</ele>
        <time>2018-04-16T12:14:57Z</time>
      </trkpt>
      <trkpt lat="46.82803" lon="2.35589">
        <ele>165</ele>
        <time>2018-04-16T12:15:09Z</time>
      </trkpt>
      <trkpt lat="46.82857" lon="2.35608">
        <ele>165</ele>
        <time>2018-04-16T12:15:26Z</time>
      </trkpt>
      <trkpt lat="46.82913" lon="2.35628">
        <ele>165</ele>
        <time>2018-04-16T12:15:42Z</time>
      </trkpt>
      <trkpt lat="46.82944" lon="2.35646">
        <ele>165</ele>
        <time>2018-04-16T12:15:51Z</time>
      </trkpt>
      <trkpt lat="46.8296" lon="2.35654">
        <ele>165</ele>
        <time>2018-04-16T12:15:56Z</time>
      </trkpt>
      <trkpt lat="46.83017" lon="2.35653">
        <ele>166</ele>
        <time>2018-04-16T12:16:12Z</time>
      </trkpt>
      <trkpt lat="46.83061" lon="2.35653">
        <ele>165</ele>
        <time>2018-04-16T12:16:24Z</time>
      </trkpt>
      <trkpt lat="46.831" lon="2.35687">
        <ele>163</ele>
        <time>2018-04-16T12:16:35Z</time>
      </trkpt>
      <trkpt lat="46.83121" lon="2.35712">
        <ele>162</ele>
        <time>2018-04-16T12:16:41Z</time>
      </trkpt>
      <trkpt lat="46.83125" lon="2.35716">
        <ele>162</ele>
        <time>2018-04-16T12:16:42Z</time>
      </trkpt>
      <trkpt lat="46.83128" lon="2.35721">
        <ele>162</ele>
        <time>2018-04-16T12:16:43Z</time>
      </trkpt>
      <trkpt lat="46.83131" lon="2.35726">
        <ele>162</ele>
        <time>2018-04-16T12:16:44Z</time>
      </trkpt>
      <trkpt lat="46.83133" lon="2.35732">
        <ele>162</ele>
        <time>2018-04-16T12:16:45Z</time>
      </trkpt>
      <trkpt lat="46.83161" lon="2.35807">
        <ele>161</ele>
        <time>2018-04-16T12:16:56Z</time>
      </trkpt>
      <trkpt lat="46.83189" lon="2.35866">
        <ele>160</ele>
        <time>2018-04-16T12:17:05Z</time>
      </trkpt>
      <trkpt lat="46.83236" lon="2.35911">
        <ele>159</ele>
        <time>2018-04-16T12:17:16Z</time>
      </trkpt>
      <trkpt lat="46.83264" lon="2.35936">
        <ele>158</ele>
        <time>2018-04-16T12:17:23Z</time>
      </trkpt>
      <trkpt lat="46.8329" lon="2.35957">
        <ele>158</ele>
        <time>2018-04-16T12:17:29Z</time>
      </trkpt>
      <trkpt lat="46.83339" lon="2.35999">
        <ele>158</ele>
        <time>2018-04-16T12:17:41Z</time>
      </trkpt>
      <trkpt lat="46.83371" lon="2.36027">
        <ele>158</ele>
        <time>2018-04-16T12:17:50Z</time>
      </trkpt>
      <trkpt lat="46.83401" lon="2.36043">
        <ele>159</ele>
        <time>2018-04-16T12:18:04Z</time>
      </trkpt>
      <trkpt lat="46.83403" lon="2.36043">
        <ele>159</ele>
        <time>2018-04-16T12:18:50Z</time>
      </trkpt>
      <trkpt lat="46.83403" lon="2.36043">
        <ele>159</ele>
        <time>2018-04-16T12:18:55Z</time>
      </trkpt>
      <trkpt lat="46.83403" lon="2.36043">
        <ele>159</ele>
        <time>2018-04-16T12:19:00Z</time>
      </trkpt>
      <trkpt lat="46.83404" lon="2.36043">
        <ele>159</ele>
        <time>2018-04-16T12:19:06Z</time>
      </trkpt>
      <trkpt lat="46.83403" lon="2.36045">
        <ele>159</ele>
        <time>2018-04-16T12:19:17Z</time>
      </trkpt>
      <trkpt lat="46.83398" lon="2.36048">
        <ele>159</ele>
        <time>2018-04-16T12:19:21Z</time>
      </trkpt>
      <trkpt lat="46.83423" lon="2.36071">
        <ele>159</ele>
        <time>2018-04-16T12:19:33Z</time>
      </trkpt>
      <trkpt lat="46.83441" lon="2.36086">
        <ele>159</ele>
        <time>2018-04-16T12:19:40Z</time>
      </trkpt>
      <trkpt lat="46.83489" lon="2.36127">
        <ele>160</ele>
        <time>2018-04-16T12:19:58Z</time>
      </trkpt>
      <trkpt lat="46.83497" lon="2.36135">
        <ele>160</ele>
        <time>2018-04-16T12:20:01Z</time>
      </trkpt>
      <trkpt lat="46.83517" lon="2.36152">
        <ele>160</ele>
        <time>2018-04-16T12:20:08Z</time>
      </trkpt>
      <trkpt lat="46.8352" lon="2.36154">
        <ele>160</ele>
        <time>2018-04-16T12:20:09Z</time>
      </trkpt>
      <trkpt lat="46.83532" lon="2.36164">
        <ele>160</ele>
        <time>2018-04-16T12:20:13Z</time>
      </trkpt>
      <trkpt lat="46.83552" lon="2.36181">
        <ele>160</ele>
        <time>2018-04-16T12:20:20Z</time>
      </trkpt>
      <trkpt lat="46.83557" lon="2.36185">
        <ele>160</ele>
        <time>2018-04-16T12:20:22Z</time>
      </trkpt>
      <trkpt lat="46.83563" lon="2.3619">
        <ele>160</ele>
        <time>2018-04-16T12:20:24Z</time>
      </trkpt>
      <trkpt lat="46.83601" lon="2.36222">
        <ele>161</ele>
        <time>2018-04-16T12:20:38Z</time>
      </trkpt>
      <trkpt lat="46.8364" lon="2.36255">
        <ele>162</ele>
        <time>2018-04-16T12:20:51Z</time>
      </trkpt>
      <trkpt lat="46.83681" lon="2.36289">
        <ele>162</ele>
        <time>2018-04-16T12:21:06Z</time>
      </trkpt>
      <trkpt lat="46.83704" lon="2.36309">
        <ele>162</ele>
        <time>2018-04-16T12:21:17Z</time>
      </trkpt>
      <trkpt lat="46.83707" lon="2.36307">
        <ele>162</ele>
        <time>2018-04-16T12:21:19Z</time>
      </trkpt>
      <trkpt lat="46.83715" lon="2.36245">
        <ele>162</ele>
        <time>2018-04-16T12:21:32Z</time>
      </trkpt>
      <trkpt lat="46.83726" lon="2.36163">
        <ele>163</ele>
        <time>2018-04-16T12:21:47Z</time>
      </trkpt>
      <trkpt lat="46.83737" lon="2.36084">
        <ele>163</ele>
        <time>2018-04-16T12:22:03Z</time>
      </trkpt>
      <trkpt lat="46.83749" lon="2.36004">
        <ele>162</ele>
        <time>2018-04-16T12:22:17Z</time>
      </trkpt>
      <trkpt lat="46.83761" lon="2.35926">
        <ele>162</ele>
        <time>2018-04-16T12:22:30Z</time>
      </trkpt>
      <trkpt lat="46.83773" lon="2.35844">
        <ele>161</ele>
        <time>2018-04-16T12:22:42Z</time>
      </trkpt>
      <trkpt lat="46.83786" lon="2.35763">
        <ele>161</ele>
        <time>2018-04-16T12:22:53Z</time>
      </trkpt>
      <trkpt lat="46.83799" lon="2.35682">
        <ele>161</ele>
        <time>2018-04-16T12:23:04Z</time>
      </trkpt>
      <trkpt lat="46.83811" lon="2.35601">
        <ele>160</ele>
        <time>2018-04-16T12:23:14Z</time>
      </trkpt>
      <trkpt lat="46.83824" lon="2.35519">
        <ele>160</ele>
        <time>2018-04-16T12:23:24Z</time>
      </trkpt>
      <trkpt lat="46.83837" lon="2.35436">
        <ele>160</ele>
        <time>2018-04-16T12:23:35Z</time>
      </trkpt>
      <trkpt lat="46.83845" lon="2.35383">
        <ele>160</ele>
        <time>2018-04-16T12:23:43Z</time>
      </trkpt>
      <trkpt lat="46.83857" lon="2.35307">
        <ele>161</ele>
        <time>2018-04-16T12:23:55Z</time>
      </trkpt>
      <trkpt lat="46.83869" lon="2.35224">
        <ele>162</ele>
        <time>2018-04-16T12:24:08Z</time>
      </trkpt>
      <trkpt lat="46.83881" lon="2.35156">
        <ele>164</ele>
        <time>2018-04-16T12:24:19Z</time>
      </trkpt>
      <trkpt lat="46.83893" lon="2.35077">
        <ele>165</ele>
        <time>2018-04-16T12:24:37Z</time>
      </trkpt>
      <trkpt lat="46.83909" lon="2.35001">
        <ele>166</ele>
        <time>2018-04-16T12:24:58Z</time>
      </trkpt>
      <trkpt lat="46.8392" lon="2.34953">
        <ele>165</ele>
        <time>2018-04-16T12:25:08Z</time>
      </trkpt>
      <trkpt lat="46.83937" lon="2.34873">
        <ele>164</ele>
        <time>2018-04-16T12:25:22Z</time>
      </trkpt>
      <trkpt lat="46.83948" lon="2.34828">
        <ele>164</ele>
        <time>2018-04-16T12:25:28Z</time>
      </trkpt>
      <trkpt lat="46.83954" lon="2.34796">
        <ele>163</ele>
        <time>2018-04-16T12:25:32Z</time>
      </trkpt>
      <trkpt lat="46.83956" lon="2.34788">
        <ele>163</ele>
        <time>2018-04-16T12:25:33Z</time>
      </trkpt>
      <trkpt lat="46.83958" lon="2.34781">
        <ele>163</ele>
        <time>2018-04-16T12:25:34Z</time>
      </trkpt>
      <trkpt lat="46.83966" lon="2.34743">
        <ele>164</ele>
        <time>2018-04-16T12:25:39Z</time>
      </trkpt>
      <trkpt lat="46.83968" lon="2.34736">
        <ele>164</ele>
        <time>2018-04-16T12:25:40Z</time>
      </trkpt>
      <trkpt lat="46.83985" lon="2.34656">
        <ele>165</ele>
        <time>2018-04-16T12:25:53Z</time>
      </trkpt>
      <trkpt lat="46.83986" lon="2.3465">
        <ele>165</ele>
        <time>2018-04-16T12:25:54Z</time>
      </trkpt>
      <trkpt lat="46.83996" lon="2.34595">
        <ele>165</ele>
        <time>2018-04-16T12:26:04Z</time>
      </trkpt>
      <trkpt lat="46.84007" lon="2.34512">
        <ele>163</ele>
        <time>2018-04-16T12:26:17Z</time>
      </trkpt>
      <trkpt lat="46.8401" lon="2.34486">
        <ele>161</ele>
        <time>2018-04-16T12:26:20Z</time>
      </trkpt>
      <trkpt lat="46.84019" lon="2.34445">
        <ele>160</ele>
        <time>2018-04-16T12:26:24Z</time>
      </trkpt>
      <trkpt lat="46.84035" lon="2.34368">
        <ele>159</ele>
        <time>2018-04-16T12:26:31Z</time>
      </trkpt>
      <trkpt lat="46.84043" lon="2.34336">
        <ele>159</ele>
        <time>2018-04-16T12:26:34Z</time>
      </trkpt>
      <trkpt lat="46.84049" lon="2.34254">
        <ele>159</ele>
        <time>2018-04-16T12:26:42Z</time>
      </trkpt>
      <trkpt lat="46.84058" lon="2.34167">
        <ele>155</ele>
        <time>2018-04-16T12:26:51Z</time>
      </trkpt>
      <trkpt lat="46.84067" lon="2.34149">
        <ele>152</ele>
        <time>2018-04-16T12:26:53Z</time>
      </trkpt>
      <trkpt lat="46.84079" lon="2.34134">
        <ele>152</ele>
        <time>2018-04-16T12:26:55Z</time>
      </trkpt>
      <trkpt lat="46.84121" lon="2.34085">
        <ele>150</ele>
        <time>2018-04-16T12:27:02Z</time>
      </trkpt>
      <trkpt lat="46.84127" lon="2.34067">
        <ele>150</ele>
        <time>2018-04-16T12:27:04Z</time>
      </trkpt>
      <trkpt lat="46.84131" lon="2.34048">
        <ele>150</ele>
        <time>2018-04-16T12:27:06Z</time>
      </trkpt>
      <trkpt lat="46.84132" lon="2.34021">
        <ele>150</ele>
        <time>2018-04-16T12:27:09Z</time>
      </trkpt>
      <trkpt lat="46.84128" lon="2.33938">
        <ele>151</ele>
        <time>2018-04-16T12:27:21Z</time>
      </trkpt>
      <trkpt lat="46.84103" lon="2.33863">
        <ele>152</ele>
        <time>2018-04-16T12:27:36Z</time>
      </trkpt>
      <trkpt lat="46.84069" lon="2.33801">
        <ele>148</ele>
        <time>2018-04-16T12:27:48Z</time>
      </trkpt>
      <trkpt lat="46.84057" lon="2.3378">
        <ele>148</ele>
        <time>2018-04-16T12:27:52Z</time>
      </trkpt>
      <trkpt lat="46.84054" lon="2.33774">
        <ele>148</ele>
        <time>2018-04-16T12:27:53Z</time>
      </trkpt>
      <trkpt lat="46.84051" lon="2.33769">
        <ele>148</ele>
        <time>2018-04-16T12:27:54Z</time>
      </trkpt>
      <trkpt lat="46.84031" lon="2.3374">
        <ele>148</ele>
        <time>2018-04-16T12:28:01Z</time>
      </trkpt>
      <trkpt lat="46.84027" lon="2.33734">
        <ele>148</ele>
        <time>2018-04-16T12:28:05Z</time>
      </trkpt>
      <trkpt lat="46.84027" lon="2.33734">
        <ele>148</ele>
        <time>2018-04-16T12:28:09Z</time>
      </trkpt>
      <trkpt lat="46.84027" lon="2.33734">
        <ele>148</ele>
        <time>2018-04-16T12:28:10Z</time>
      </trkpt>
      <trkpt lat="46.84028" lon="2.33734">
        <ele>148</ele>
        <time>2018-04-16T12:28:13Z</time>
      </trkpt>
      <trkpt lat="46.84027" lon="2.33734">
        <ele>148</ele>
        <time>2018-04-16T12:28:15Z</time>
      </trkpt>
      <trkpt lat="46.84028" lon="2.33734">
        <ele>148</ele>
        <time>2018-04-16T12:28:18Z</time>
      </trkpt>
      <trkpt lat="46.84027" lon="2.33734">
        <ele>148</ele>
        <time>2018-04-16T12:28:21Z</time>
      </trkpt>
      <trkpt lat="46.84027" lon="2.33734">
        <ele>148</ele>
        <time>2018-04-16T12:28:24Z</time>
      </trkpt>
      <trkpt lat="46.84027" lon="2.33734">
        <ele>148</ele>
        <time>2018-04-16T12:28:38Z</time>
      </trkpt>
      <trkpt lat="46.84027" lon="2.33734">
        <ele>148</ele>
        <time>2018-04-16T12:28:42Z</time>
      </trkpt>
      <trkpt lat="46.84027" lon="2.33734">
        <ele>148</ele>
        <time>2018-04-16T12:28:45Z</time>
      </trkpt>
      <trkpt lat="46.84028" lon="2.33734">
        <ele>148</ele>
        <time>2018-04-16T12:28:51Z</time>
      </trkpt>
      <trkpt lat="46.84028" lon="2.33733">
        <ele>148</ele>
        <time>2018-04-16T12:28:57Z</time>
      </trkpt>
      <trkpt lat="46.84028" lon="2.33733">
        <ele>148</ele>
        <time>2018-04-16T12:29:04Z</time>
      </trkpt>
      <trkpt lat="46.84028" lon="2.33733">
        <ele>148</ele>
        <time>2018-04-16T12:29:10Z</time>
      </trkpt>
      <trkpt lat="46.84028" lon="2.33733">
        <ele>148</ele>
        <time>2018-04-16T12:29:16Z</time>
      </trkpt>
      <trkpt lat="46.84028" lon="2.33733">
        <ele>148</ele>
        <time>2018-04-16T12:29:25Z</time>
      </trkpt>
      <trkpt lat="46.84029" lon="2.33729">
        <ele>148</ele>
        <time>2018-04-16T12:29:30Z</time>
      </trkpt>
      <trkpt lat="46.84032" lon="2.33713">
        <ele>148</ele>
        <time>2018-04-16T12:29:34Z</time>
      </trkpt>
      <trkpt lat="46.84042" lon="2.33655">
        <ele>149</ele>
        <time>2018-04-16T12:29:43Z</time>
      </trkpt>
      <trkpt lat="46.84046" lon="2.33637">
        <ele>149</ele>
        <time>2018-04-16T12:29:46Z</time>
      </trkpt>
      <trkpt lat="46.84049" lon="2.33625">
        <ele>149</ele>
        <time>2018-04-16T12:29:48Z</time>
      </trkpt>
      <trkpt lat="46.84055" lon="2.33606">
        <ele>150</ele>
        <time>2018-04-16T12:29:51Z</time>
      </trkpt>
      <trkpt lat="46.84057" lon="2.336">
        <ele>150</ele>
        <time>2018-04-16T12:29:52Z</time>
      </trkpt>
      <trkpt lat="46.84059" lon="2.33593">
        <ele>150</ele>
        <time>2018-04-16T12:29:53Z</time>
      </trkpt>
      <trkpt lat="46.84086" lon="2.33518">
        <ele>151</ele>
        <time>2018-04-16T12:30:02Z</time>
      </trkpt>
      <trkpt lat="46.84092" lon="2.33505">
        <ele>150</ele>
        <time>2018-04-16T12:30:04Z</time>
      </trkpt>
      <trkpt lat="46.84096" lon="2.33486">
        <ele>148</ele>
        <time>2018-04-16T12:30:09Z</time>
      </trkpt>
      <trkpt lat="46.84067" lon="2.33492">
        <ele>144</ele>
        <time>2018-04-16T12:30:17Z</time>
      </trkpt>
      <trkpt lat="46.84048" lon="2.33499">
        <ele>143</ele>
        <time>2018-04-16T12:30:21Z</time>
      </trkpt>
      <trkpt lat="46.84044" lon="2.33501">
        <ele>146</ele>
        <time>2018-04-16T12:30:22Z</time>
      </trkpt>
      <trkpt lat="46.8404" lon="2.33504">
        <ele>146</ele>
        <time>2018-04-16T12:30:23Z</time>
      </trkpt>
      <trkpt lat="46.84019" lon="2.33517">
        <ele>145</ele>
        <time>2018-04-16T12:30:29Z</time>
      </trkpt>
      <trkpt lat="46.83995" lon="2.33543">
        <ele>142</ele>
        <time>2018-04-16T12:30:38Z</time>
      </trkpt>
      <trkpt lat="46.83976" lon="2.33575">
        <ele>142</ele>
        <time>2018-04-16T12:30:48Z</time>
      </trkpt>
      <trkpt lat="46.83975" lon="2.33577">
        <ele>142</ele>
        <time>2018-04-16T12:30:49Z</time>
      </trkpt>
      <trkpt lat="46.83973" lon="2.33577">
        <ele>142</ele>
        <time>2018-04-16T12:30:50Z</time>
      </trkpt>
      <trkpt lat="46.83971" lon="2.33579">
        <ele>142</ele>
        <time>2018-04-16T12:31:00Z</time>
      </trkpt>
      <trkpt lat="46.83971" lon="2.33579">
        <ele>142</ele>
        <time>2018-04-16T12:31:02Z</time>
      </trkpt>
      <trkpt lat="46.83971" lon="2.33579">
        <ele>142</ele>
        <time>2018-04-16T12:31:05Z</time>
      </trkpt>
      <trkpt lat="46.83971" lon="2.33579">
        <ele>142</ele>
        <time>2018-04-16T12:31:07Z</time>
      </trkpt>
      <trkpt lat="46.83971" lon="2.33579">
        <ele>142</ele>
        <time>2018-04-16T12:31:10Z</time>
      </trkpt>
      <trkpt lat="46.83971" lon="2.33579">
        <ele>142</ele>
        <time>2018-04-16T12:31:11Z</time>
      </trkpt>
      <trkpt lat="46.8397" lon="2.33579">
        <ele>142</ele>
        <time>2018-04-16T12:31:12Z</time>
      </trkpt>
      <trkpt lat="46.8397" lon="2.3358">
        <ele>142</ele>
        <time>2018-04-16T12:31:13Z</time>
      </trkpt>
      <trkpt lat="46.83969" lon="2.3358">
        <ele>142</ele>
        <time>2018-04-16T12:31:14Z</time>
      </trkpt>
      <trkpt lat="46.8394" lon="2.33596">
        <ele>140</ele>
        <time>2018-04-16T12:31:28Z</time>
      </trkpt>
      <trkpt lat="46.83915" lon="2.33602">
        <ele>138</ele>
        <time>2018-04-16T12:31:34Z</time>
      </trkpt>
      <trkpt lat="46.83863" lon="2.33595">
        <ele>139</ele>
        <time>2018-04-16T12:31:48Z</time>
      </trkpt>
      <trkpt lat="46.8384" lon="2.33575">
        <ele>140</ele>
        <time>2018-04-16T12:31:59Z</time>
      </trkpt>
      <trkpt lat="46.83817" lon="2.33507">
        <ele>141</ele>
        <time>2018-04-16T12:32:18Z</time>
      </trkpt>
      <trkpt lat="46.83835" lon="2.3343">
        <ele>141</ele>
        <time>2018-04-16T12:32:34Z</time>
      </trkpt>
      <trkpt lat="46.83838" lon="2.33416">
        <ele>141</ele>
        <time>2018-04-16T12:32:37Z</time>
      </trkpt>
      <trkpt lat="46.83831" lon="2.33335">
        <ele>140</ele>
        <time>2018-04-16T12:32:54Z</time>
      </trkpt>
      <trkpt lat="46.83814" lon="2.33258">
        <ele>140</ele>
        <time>2018-04-16T12:33:08Z</time>
      </trkpt>
      <trkpt lat="46.83799" lon="2.33176">
        <ele>139</ele>
        <time>2018-04-16T12:33:22Z</time>
      </trkpt>
      <trkpt lat="46.83796" lon="2.33164">
        <ele>139</ele>
        <time>2018-04-16T12:33:24Z</time>
      </trkpt>
      <trkpt lat="46.83795" lon="2.33117">
        <ele>138</ele>
        <time>2018-04-16T12:33:32Z</time>
      </trkpt>
      <trkpt lat="46.83821" lon="2.33085">
        <ele>138</ele>
        <time>2018-04-16T12:33:41Z</time>
      </trkpt>
      <trkpt lat="46.83876" lon="2.3306">
        <ele>137</ele>
        <time>2018-04-16T12:33:55Z</time>
      </trkpt>
      <trkpt lat="46.83916" lon="2.3303">
        <ele>137</ele>
        <time>2018-04-16T12:34:07Z</time>
      </trkpt>
      <trkpt lat="46.83964" lon="2.3299">
        <ele>138</ele>
        <time>2018-04-16T12:34:21Z</time>
      </trkpt>
      <trkpt lat="46.84018" lon="2.32958">
        <ele>138</ele>
        <time>2018-04-16T12:34:35Z</time>
      </trkpt>
      <trkpt lat="46.84065" lon="2.32912">
        <ele>138</ele>
        <time>2018-04-16T12:34:49Z</time>
      </trkpt>
      <trkpt lat="46.84076" lon="2.32901">
        <ele>139</ele>
        <time>2018-04-16T12:34:52Z</time>
      </trkpt>
      <trkpt lat="46.84114" lon="2.32844">
        <ele>138</ele>
        <time>2018-04-16T12:35:05Z</time>
      </trkpt>
      <trkpt lat="46.8413" lon="2.32804">
        <ele>137</ele>
        <time>2018-04-16T12:35:13Z</time>
      </trkpt>
      <trkpt lat="46.84138" lon="2.32722">
        <ele>136</ele>
        <time>2018-04-16T12:35:27Z</time>
      </trkpt>
      <trkpt lat="46.84146" lon="2.3271">
        <ele>136</ele>
        <time>2018-04-16T12:35:30Z</time>
      </trkpt>
      <trkpt lat="46.8419" lon="2.3266">
        <ele>138</ele>
        <time>2018-04-16T12:35:44Z</time>
      </trkpt>
      <trkpt lat="46.84213" lon="2.32634">
        <ele>138</ele>
        <time>2018-04-16T12:35:51Z</time>
      </trkpt>
      <trkpt lat="46.84268" lon="2.3261">
        <ele>139</ele>
        <time>2018-04-16T12:36:05Z</time>
      </trkpt>
      <trkpt lat="46.84299" lon="2.32547">
        <ele>142</ele>
        <time>2018-04-16T12:36:18Z</time>
      </trkpt>
      <trkpt lat="46.84318" lon="2.32467">
        <ele>144</ele>
        <time>2018-04-16T12:36:31Z</time>
      </trkpt>
      <trkpt lat="46.84334" lon="2.32386">
        <ele>141</ele>
        <time>2018-04-16T12:36:44Z</time>
      </trkpt>
      <trkpt lat="46.84347" lon="2.32354">
        <ele>140</ele>
        <time>2018-04-16T12:36:50Z</time>
      </trkpt>
      <trkpt lat="46.84353" lon="2.32337">
        <ele>140</ele>
        <time>2018-04-16T12:36:53Z</time>
      </trkpt>
      <trkpt lat="46.84399" lon="2.32286">
        <ele>140</ele>
        <time>2018-04-16T12:37:06Z</time>
      </trkpt>
      <trkpt lat="46.84407" lon="2.32279">
        <ele>140</ele>
        <time>2018-04-16T12:37:08Z</time>
      </trkpt>
      <trkpt lat="46.84452" lon="2.32228">
        <ele>140</ele>
        <time>2018-04-16T12:37:21Z</time>
      </trkpt>
      <trkpt lat="46.84491" lon="2.32171">
        <ele>139</ele>
        <time>2018-04-16T12:37:33Z</time>
      </trkpt>
      <trkpt lat="46.84526" lon="2.32135">
        <ele>138</ele>
        <time>2018-04-16T12:37:42Z</time>
      </trkpt>
      <trkpt lat="46.8458" lon="2.32123">
        <ele>138</ele>
        <time>2018-04-16T12:37:54Z</time>
      </trkpt>
      <trkpt lat="46.84597" lon="2.32118">
        <ele>137</ele>
        <time>2018-04-16T12:37:58Z</time>
      </trkpt>
      <trkpt lat="46.84647" lon="2.32083">
        <ele>136</ele>
        <time>2018-04-16T12:38:10Z</time>
      </trkpt>
      <trkpt lat="46.84695" lon="2.32046">
        <ele>136</ele>
        <time>2018-04-16T12:38:22Z</time>
      </trkpt>
      <trkpt lat="46.84743" lon="2.32009">
        <ele>135</ele>
        <time>2018-04-16T12:38:34Z</time>
      </trkpt>
      <trkpt lat="46.84774" lon="2.31988">
        <ele>135</ele>
        <time>2018-04-16T12:38:41Z</time>
      </trkpt>
      <trkpt lat="46.84811" lon="2.31969">
        <ele>135</ele>
        <time>2018-04-16T12:38:49Z</time>
      </trkpt>
      <trkpt lat="46.84868" lon="2.31948">
        <ele>136</ele>
        <time>2018-04-16T12:39:01Z</time>
      </trkpt>
      <trkpt lat="46.84921" lon="2.31923">
        <ele>136</ele>
        <time>2018-04-16T12:39:12Z</time>
      </trkpt>
      <trkpt lat="46.84934" lon="2.31915">
        <ele>136</ele>
        <time>2018-04-16T12:39:15Z</time>
      </trkpt>
      <trkpt lat="46.84939" lon="2.31912">
        <ele>136</ele>
        <time>2018-04-16T12:39:16Z</time>
      </trkpt>
      <trkpt lat="46.84943" lon="2.3191">
        <ele>136</ele>
        <time>2018-04-16T12:39:17Z</time>
      </trkpt>
      <trkpt lat="46.84961" lon="2.31898">
        <ele>136</ele>
        <time>2018-04-16T12:39:21Z</time>
      </trkpt>
      <trkpt lat="46.84984" lon="2.31882">
        <ele>136</ele>
        <time>2018-04-16T12:39:26Z</time>
      </trkpt>
      <trkpt lat="46.85037" lon="2.31857">
        <ele>137</ele>
        <time>2018-04-16T12:39:37Z</time>
      </trkpt>
      <trkpt lat="46.85081" lon="2.31838">
        <ele>137</ele>
        <time>2018-04-16T12:39:46Z</time>
      </trkpt>
      <trkpt lat="46.85134" lon="2.31813">
        <ele>136</ele>
        <time>2018-04-16T12:39:57Z</time>
      </trkpt>
      <trkpt lat="46.85174" lon="2.3179">
        <ele>136</ele>
        <time>2018-04-16T12:40:06Z</time>
      </trkpt>
      <trkpt lat="46.85191" lon="2.31778">
        <ele>136</ele>
        <time>2018-04-16T12:40:10Z</time>
      </trkpt>
      <trkpt lat="46.8521" lon="2.31757">
        <ele>136</ele>
        <time>2018-04-16T12:40:15Z</time>
      </trkpt>
      <trkpt lat="46.85237" lon="2.31696">
        <ele>135</ele>
        <time>2018-04-16T12:40:25Z</time>
      </trkpt>
      <trkpt lat="46.85243" lon="2.31684">
        <ele>135</ele>
        <time>2018-04-16T12:40:27Z</time>
      </trkpt>
      <trkpt lat="46.85247" lon="2.31679">
        <ele>135</ele>
        <time>2018-04-16T12:40:28Z</time>
      </trkpt>
      <trkpt lat="46.85286" lon="2.31645">
        <ele>135</ele>
        <time>2018-04-16T12:40:38Z</time>
      </trkpt>
      <trkpt lat="46.85342" lon="2.31634">
        <ele>136</ele>
        <time>2018-04-16T12:40:50Z</time>
      </trkpt>
      <trkpt lat="46.85398" lon="2.31648">
        <ele>136</ele>
        <time>2018-04-16T12:41:02Z</time>
      </trkpt>
      <trkpt lat="46.85451" lon="2.31674">
        <ele>136</ele>
        <time>2018-04-16T12:41:14Z</time>
      </trkpt>
      <trkpt lat="46.85495" lon="2.31701">
        <ele>136</ele>
        <time>2018-04-16T12:41:25Z</time>
      </trkpt>
      <trkpt lat="46.85507" lon="2.31704">
        <ele>136</ele>
        <time>2018-04-16T12:41:28Z</time>
      </trkpt>
      <trkpt lat="46.85532" lon="2.317">
        <ele>137</ele>
        <time>2018-04-16T12:41:35Z</time>
      </trkpt>
      <trkpt lat="46.85544" lon="2.31701">
        <ele>137</ele>
        <time>2018-04-16T12:41:41Z</time>
      </trkpt>
      <trkpt lat="46.85545" lon="2.31708">
        <ele>137</ele>
        <time>2018-04-16T12:41:43Z</time>
      </trkpt>
      <trkpt lat="46.8553" lon="2.31784">
        <ele>137</ele>
        <time>2018-04-16T12:42:03Z</time>
      </trkpt>
      <trkpt lat="46.85523" lon="2.3185">
        <ele>137</ele>
        <time>2018-04-16T12:42:25Z</time>
      </trkpt>
      <trkpt lat="46.85525" lon="2.31852">
        <ele>137</ele>
        <time>2018-04-16T12:42:27Z</time>
      </trkpt>
      <trkpt lat="46.85538" lon="2.31877">
        <ele>137</ele>
        <time>2018-04-16T12:42:39Z</time>
      </trkpt>
      <trkpt lat="46.85542" lon="2.31881">
        <ele>138</ele>
        <time>2018-04-16T12:42:42Z</time>
      </trkpt>
      <trkpt lat="46.85572" lon="2.31909">
        <ele>138</ele>
        <time>2018-04-16T12:43:03Z</time>
      </trkpt>
      <trkpt lat="46.85574" lon="2.31912">
        <ele>138</ele>
        <time>2018-04-16T12:43:04Z</time>
      </trkpt>
      <trkpt lat="46.85579" lon="2.31918">
        <ele>139</ele>
        <time>2018-04-16T12:43:07Z</time>
      </trkpt>
      <trkpt lat="46.8563" lon="2.3194">
        <ele>139</ele>
        <time>2018-04-16T12:43:28Z</time>
      </trkpt>
      <trkpt lat="46.85664" lon="2.31929">
        <ele>139</ele>
        <time>2018-04-16T12:43:52Z</time>
      </trkpt>
      <trkpt lat="46.85665" lon="2.3193">
        <ele>139</ele>
        <time>2018-04-16T12:43:53Z</time>
      </trkpt>
      <trkpt lat="46.85674" lon="2.31945">
        <ele>139</ele>
        <time>2018-04-16T12:44:04Z</time>
      </trkpt>
      <trkpt lat="46.85687" lon="2.31947">
        <ele>139</ele>
        <time>2018-04-16T12:44:31Z</time>
      </trkpt>
      <trkpt lat="46.85689" lon="2.31946">
        <ele>139</ele>
        <time>2018-04-16T12:44:49Z</time>
      </trkpt>
      <trkpt lat="46.85689" lon="2.31946">
        <ele>139</ele>
        <time>2018-04-16T12:45:00Z</time>
      </trkpt>
      <trkpt lat="46.85692" lon="2.31942">
        <ele>139</ele>
        <time>2018-04-16T12:45:06Z</time>
      </trkpt>
      <trkpt lat="46.85694" lon="2.31941">
        <ele>139</ele>
        <time>2018-04-16T12:45:07Z</time>
      </trkpt>
      <trkpt lat="46.85708" lon="2.31936">
        <ele>139</ele>
        <time>2018-04-16T12:45:14Z</time>
      </trkpt>
      <trkpt lat="46.85723" lon="2.31933">
        <ele>139</ele>
        <time>2018-04-16T12:45:20Z</time>
      </trkpt>
      <trkpt lat="46.85734" lon="2.31929">
        <ele>139</ele>
        <time>2018-04-16T12:45:25Z</time>
      </trkpt>
      <trkpt lat="46.85741" lon="2.3193">
        <ele>139</ele>
        <time>2018-04-16T12:45:28Z</time>
      </trkpt>
      <trkpt lat="46.85752" lon="2.31932">
        <ele>141</ele>
        <time>2018-04-16T12:45:32Z</time>
      </trkpt>
      <trkpt lat="46.85759" lon="2.31946">
        <ele>142</ele>
        <time>2018-04-16T12:45:36Z</time>
      </trkpt>
      <trkpt lat="46.8576" lon="2.31949">
        <ele>143</ele>
        <time>2018-04-16T12:45:37Z</time>
      </trkpt>
      <trkpt lat="46.85762" lon="2.3197">
        <ele>144</ele>
        <time>2018-04-16T12:45:42Z</time>
      </trkpt>
      <trkpt lat="46.85766" lon="2.31981">
        <ele>144</ele>
        <time>2018-04-16T12:45:45Z</time>
      </trkpt>
      <trkpt lat="46.85767" lon="2.31988">
        <ele>144</ele>
        <time>2018-04-16T12:45:47Z</time>
      </trkpt>
      <trkpt lat="46.85765" lon="2.31997">
        <ele>144</ele>
        <time>2018-04-16T12:45:49Z</time>
      </trkpt>
      <trkpt lat="46.85763" lon="2.32005">
        <ele>146</ele>
        <time>2018-04-16T12:45:51Z</time>
      </trkpt>
      <trkpt lat="46.85762" lon="2.32008">
        <ele>146</ele>
        <time>2018-04-16T12:45:52Z</time>
      </trkpt>
      <trkpt lat="46.85757" lon="2.32017">
        <ele>147</ele>
        <time>2018-04-16T12:45:58Z</time>
      </trkpt>
      <trkpt lat="46.85759" lon="2.32023">
        <ele>148</ele>
        <time>2018-04-16T12:46:08Z</time>
      </trkpt>
      <trkpt lat="46.8576" lon="2.32023">
        <ele>148</ele>
        <time>2018-04-16T12:46:17Z</time>
      </trkpt>
      <trkpt lat="46.85763" lon="2.32022">
        <ele>148</ele>
        <time>2018-04-16T12:46:27Z</time>
      </trkpt>
      <trkpt lat="46.85762" lon="2.32023">
        <ele>148</ele>
        <time>2018-04-16T12:46:44Z</time>
      </trkpt>
      <trkpt lat="46.85763" lon="2.32023">
        <ele>149</ele>
        <time>2018-04-16T12:47:01Z</time>
      </trkpt>
      <trkpt lat="46.85762" lon="2.32023">
        <ele>148</ele>
        <time>2018-04-16T12:47:16Z</time>
      </trkpt>
      <trkpt lat="46.85765" lon="2.32023">
        <ele>149</ele>
        <time>2018-04-16T12:47:28Z</time>
      </trkpt>
      <trkpt lat="46.85764" lon="2.32023">
        <ele>149</ele>
        <time>2018-04-16T12:47:36Z</time>
      </trkpt>
      <trkpt lat="46.8576" lon="2.32024">
        <ele>148</ele>
        <time>2018-04-16T12:47:46Z</time>
      </trkpt>
      <trkpt lat="46.8576" lon="2.32024">
        <ele>148</ele>
        <time>2018-04-16T12:47:52Z</time>
      </trkpt>
      <trkpt lat="46.8576" lon="2.32024">
        <ele>148</ele>
        <time>2018-04-16T12:47:53Z</time>
      </trkpt>
      <trkpt lat="46.8576" lon="2.32024">
        <ele>148</ele>
        <time>2018-04-16T12:47:59Z</time>
      </trkpt>
      <trkpt lat="46.8576" lon="2.32024">
        <ele>148</ele>
        <time>2018-04-16T12:48:03Z</time>
      </trkpt>
      <trkpt lat="46.8576" lon="2.32024">
        <ele>148</ele>
        <time>2018-04-16T12:48:06Z</time>
      </trkpt>
      <trkpt lat="46.8576" lon="2.32024">
        <ele>148</ele>
        <time>2018-04-16T12:48:08Z</time>
      </trkpt>
      <trkpt lat="46.8576" lon="2.32024">
        <ele>148</ele>
        <time>2018-04-16T12:48:09Z</time>
      </trkpt>
      <trkpt lat="46.8576" lon="2.32025">
        <ele>148</ele>
        <time>2018-04-16T12:48:16Z</time>
      </trkpt>
      <trkpt lat="46.8576" lon="2.32025">
        <ele>148</ele>
        <time>2018-04-16T12:48:25Z</time>
      </trkpt>
      <trkpt lat="46.8576" lon="2.32025">
        <ele>148</ele>
        <time>2018-04-16T12:48:26Z</time>
      </trkpt>
      <trkpt lat="46.85761" lon="2.32024">
        <ele>148</ele>
        <time>2018-04-16T12:48:53Z</time>
      </trkpt>
      <trkpt lat="46.85762" lon="2.32033">
        <ele>149</ele>
        <time>2018-04-16T12:49:31Z</time>
      </trkpt>
      <trkpt lat="46.85763" lon="2.32034">
        <ele>149</ele>
        <time>2018-04-16T12:49:33Z</time>
      </trkpt>
      <trkpt lat="46.85766" lon="2.32035">
        <ele>150</ele>
        <time>2018-04-16T12:49:36Z</time>
      </trkpt>
      <trkpt lat="46.85769" lon="2.3204">
        <ele>150</ele>
        <time>2018-04-16T12:49:41Z</time>
      </trkpt>
      <trkpt lat="46.8577" lon="2.32043">
        <ele>150</ele>
        <time>2018-04-16T12:49:43Z</time>
      </trkpt>
      <trkpt lat="46.85769" lon="2.32044">
        <ele>150</ele>
        <time>2018-04-16T12:49:46Z</time>
      </trkpt>
      <trkpt lat="46.85765" lon="2.32042">
        <ele>150</ele>
        <time>2018-04-16T12:49:49Z</time>
      </trkpt>
      <trkpt lat="46.85766" lon="2.32043">
        <ele>150</ele>
        <time>2018-04-16T12:49:51Z</time>
      </trkpt>
      <trkpt lat="46.85769" lon="2.32047">
        <ele>150</ele>
        <time>2018-04-16T12:49:59Z</time>
      </trkpt>
      <trkpt lat="46.85769" lon="2.32049">
        <ele>151</ele>
        <time>2018-04-16T12:50:01Z</time>
      </trkpt>
      <trkpt lat="46.85771" lon="2.32053">
        <ele>151</ele>
        <time>2018-04-16T12:50:06Z</time>
      </trkpt>
      <trkpt lat="46.85774" lon="2.32059">
        <ele>151</ele>
        <time>2018-04-16T12:50:11Z</time>
      </trkpt>
      <trkpt lat="46.85775" lon="2.32061">
        <ele>151</ele>
        <time>2018-04-16T12:50:13Z</time>
      </trkpt>
      <trkpt lat="46.85775" lon="2.32065">
        <ele>151</ele>
        <time>2018-04-16T12:50:16Z</time>
      </trkpt>
      <trkpt lat="46.85778" lon="2.32077">
        <ele>151</ele>
        <time>2018-04-16T12:50:23Z</time>
      </trkpt>
      <trkpt lat="46.85801" lon="2.32114">
        <ele>155</ele>
        <time>2018-04-16T12:50:53Z</time>
      </trkpt>
      <trkpt lat="46.85816" lon="2.32139">
        <ele>155</ele>
        <time>2018-04-16T12:51:14Z</time>
      </trkpt>
      <trkpt lat="46.8582" lon="2.3215">
        <ele>155</ele>
        <time>2018-04-16T12:51:20Z</time>
      </trkpt>
      <trkpt lat="46.85833" lon="2.32179">
        <ele>155</ele>
        <time>2018-04-16T12:51:36Z</time>
      </trkpt>
      <trkpt lat="46.85836" lon="2.32194">
        <ele>157</ele>
        <time>2018-04-16T12:51:52Z</time>
      </trkpt>
      <trkpt lat="46.85833" lon="2.32194">
        <ele>154</ele>
        <time>2018-04-16T12:52:05Z</time>
      </trkpt>
      <trkpt lat="46.85833" lon="2.32195">
        <ele>154</ele>
        <time>2018-04-16T12:52:06Z</time>
      </trkpt>
      <trkpt lat="46.85832" lon="2.32199">
        <ele>153</ele>
        <time>2018-04-16T12:52:09Z</time>
      </trkpt>
      <trkpt lat="46.85834" lon="2.32223">
        <ele>156</ele>
        <time>2018-04-16T12:52:14Z</time>
      </trkpt>
      <trkpt lat="46.85836" lon="2.32232">
        <ele>156</ele>
        <time>2018-04-16T12:52:16Z</time>
      </trkpt>
      <trkpt lat="46.85842" lon="2.32249">
        <ele>155</ele>
        <time>2018-04-16T12:52:20Z</time>
      </trkpt>
      <trkpt lat="46.85851" lon="2.3227">
        <ele>154</ele>
        <time>2018-04-16T12:52:25Z</time>
      </trkpt>
      <trkpt lat="46.85858" lon="2.32281">
        <ele>155</ele>
        <time>2018-04-16T12:52:28Z</time>
      </trkpt>
      <trkpt lat="46.85865" lon="2.3229">
        <ele>155</ele>
        <time>2018-04-16T12:52:31Z</time>
      </trkpt>
      <trkpt lat="46.85872" lon="2.32294">
        <ele>155</ele>
        <time>2018-04-16T12:52:34Z</time>
      </trkpt>
      <trkpt lat="46.85875" lon="2.32294">
        <ele>155</ele>
        <time>2018-04-16T12:52:35Z</time>
      </trkpt>
      <trkpt lat="46.85881" lon="2.32292">
        <ele>156</ele>
        <time>2018-04-16T12:52:36Z</time>
      </trkpt>
      <trkpt lat="46.8589" lon="2.3229">
        <ele>156</ele>
        <time>2018-04-16T12:52:40Z</time>
      </trkpt>
      <trkpt lat="46.85927" lon="2.32261">
        <ele>160</ele>
        <time>2018-04-16T12:52:56Z</time>
      </trkpt>
      <trkpt lat="46.85977" lon="2.32224">
        <ele>162</ele>
        <time>2018-04-16T12:53:16Z</time>
      </trkpt>
      <trkpt lat="46.86026" lon="2.32191">
        <ele>162</ele>
        <time>2018-04-16T12:53:35Z</time>
      </trkpt>
      <trkpt lat="46.86039" lon="2.32187">
        <ele>162</ele>
        <time>2018-04-16T12:53:58Z</time>
      </trkpt>
      <trkpt lat="46.86047" lon="2.32172">
        <ele>162</ele>
        <time>2018-04-16T12:54:04Z</time>
      </trkpt>
      <trkpt lat="46.86053" lon="2.32095">
        <ele>164</ele>
        <time>2018-04-16T12:54:23Z</time>
      </trkpt>
      <trkpt lat="46.86058" lon="2.32091">
        <ele>164</ele>
        <time>2018-04-16T12:54:26Z</time>
      </trkpt>
      <trkpt lat="46.86067" lon="2.32088">
        <ele>163</ele>
        <time>2018-04-16T12:54:32Z</time>
      </trkpt>
      <trkpt lat="46.86065" lon="2.32087">
        <ele>163</ele>
        <time>2018-04-16T12:54:42Z</time>
      </trkpt>
    </trkseg>
  </trk>
</gpx>